createdAt,value
2023-10-26T00:00:13.129Z,85.30
2023-10-26T00:03:03.005Z,84.81
2023-10-26T00:05:34.027Z,85.64
2023-10-26T00:08:07.258Z,84.83
2023-10-26T00:10:42.292Z,85.33
2023-10-26T00:13:13.468Z,85.03
2023-10-26T00:15:43.985Z,85.00
2023-10-26T00:18:16.007Z,84.95
2023-10-26T00:20:47.978Z,84.66
2023-10-26T00:23:19.174Z,84.96
2023-10-26T00:25:50.480Z,85.12
2023-10-26T00:28:22.396Z,85.33
2023-10-26T00:30:53.082Z,84.64
2023-10-26T00:33:24.634Z,85.17
2023-10-26T00:35:55.729Z,84.98
2023-10-26T00:38:25.947Z,84.82
2023-10-26T00:40:56.817Z,84.45
2023-10-26T00:43:28.458Z,84.72
2023-10-26T00:45:59.042Z,84.36
2023-10-26T00:48:30.286Z,84.84
2023-10-26T00:51:01.226Z,84.65
2023-10-26T00:53:32.495Z,84.37
2023-10-26T00:56:03.573Z,84.87
2023-10-26T00:58:35.183Z,84.50
2023-10-26T01:01:05.795Z,84.46
2023-10-26T01:03:36.511Z,84.54
2023-10-26T01:06:07.797Z,84.67
2023-10-26T01:08:39.704Z,84.68
2023-10-26T01:11:10.978Z,84.92
2023-10-26T01:13:42.616Z,85.27
2023-10-26T01:16:14.249Z,84.82
2023-10-26T01:18:45.457Z,84.70
2023-10-26T01:21:17.279Z,85.25
2023-10-26T01:23:49.359Z,84.97
2023-10-26T01:26:19.951Z,84.78
2023-10-26T01:28:51.601Z,84.55
2023-10-26T01:31:22.255Z,84.79
2023-10-26T01:33:53.900Z,84.61
2023-10-26T01:36:25.260Z,85.01
2023-10-26T01:38:58.248Z,84.58
2023-10-26T01:41:33.814Z,84.61
2023-10-26T01:44:04.846Z,84.56
2023-10-26T01:46:35.957Z,84.32
2023-10-26T01:49:08.292Z,84.43
2023-10-26T01:51:40.149Z,84.35
2023-10-26T01:54:12.299Z,84.32
2023-10-26T01:56:44.152Z,84.36
2023-10-26T01:59:14.517Z,84.14
2023-10-26T02:01:44.359Z,84.17
2023-10-26T02:04:16.173Z,84.08
2023-10-26T02:06:47.212Z,84.09
2023-10-26T02:09:17.885Z,84.05
2023-10-26T02:11:48.634Z,84.09
2023-10-26T02:14:20.206Z,84.10
2023-10-26T02:16:50.373Z,83.86
2023-10-26T02:19:24.925Z,83.81
2023-10-26T02:21:56.092Z,83.50
2023-10-26T02:24:27.421Z,83.26
2023-10-26T02:26:58.619Z,83.12
2023-10-26T02:29:28.975Z,82.91
2023-10-26T02:31:59.123Z,82.67
2023-10-26T02:34:30.514Z,82.52
2023-10-26T02:37:02.532Z,82.40
2023-10-26T02:39:33.836Z,82.47
2023-10-26T02:42:04.320Z,82.51
2023-10-26T02:44:34.876Z,82.65
2023-10-26T02:47:05.646Z,82.78
2023-10-26T02:49:35.935Z,82.81
2023-10-26T02:52:07.627Z,82.57
2023-10-26T02:54:40.432Z,82.00
2023-10-26T02:57:11.111Z,81.84
2023-10-26T02:59:42.297Z,81.94
2023-10-26T03:02:12.782Z,82.01
2023-10-26T03:04:45.496Z,82.07
2023-10-26T03:07:23.847Z,82.08
2023-10-26T03:09:56.493Z,82.02
2023-10-26T03:12:28.566Z,81.75
2023-10-26T03:15:00.861Z,81.75
2023-10-26T03:17:31.199Z,81.53
2023-10-26T03:20:02.060Z,81.10
2023-10-26T03:22:32.424Z,80.81
2023-10-26T03:25:05.900Z,80.72
2023-10-26T03:27:37.808Z,80.29
2023-10-26T03:30:10.624Z,80.18
2023-10-26T03:32:42.231Z,80.23
2023-10-26T03:35:14.378Z,80.29
2023-10-26T03:37:45.873Z,80.44
2023-10-26T03:40:17.304Z,80.42
2023-10-26T03:42:47.899Z,80.54
2023-10-26T03:45:19.047Z,80.45
2023-10-26T03:47:50.193Z,80.35
2023-10-26T03:50:22.693Z,80.09
2023-10-26T03:52:54.063Z,79.96
2023-10-26T03:55:24.987Z,79.88
2023-10-26T03:57:55.561Z,79.75
2023-10-26T04:00:25.800Z,79.78
2023-10-26T04:02:56.967Z,79.85
2023-10-26T04:05:27.581Z,79.92
2023-10-26T04:08:00.421Z,80.11
2023-10-26T04:10:31.495Z,80.13
2023-10-26T04:13:02.862Z,80.15
2023-10-26T04:15:33.733Z,80.17
2023-10-26T04:18:08.546Z,80.31
2023-10-26T04:20:40.007Z,80.28
2023-10-26T04:23:11.517Z,80.11
2023-10-26T04:25:53.991Z,80.25
2023-10-26T04:28:27.799Z,80.53
2023-10-26T04:30:58.241Z,80.61
2023-10-26T04:33:29.793Z,80.67
2023-10-26T04:36:06.677Z,80.46
2023-10-26T04:38:37.386Z,80.00
2023-10-26T04:41:08.915Z,79.52
2023-10-26T04:43:40.946Z,79.09
2023-10-26T04:46:12.053Z,78.94
2023-10-26T04:48:44.012Z,78.80
2023-10-26T04:51:15.096Z,78.50
2023-10-26T04:53:45.425Z,78.19
2023-10-26T04:56:15.628Z,78.02
2023-10-26T04:58:46.956Z,77.71
2023-10-26T05:01:18.204Z,77.58
2023-10-26T05:03:50.077Z,77.45
2023-10-26T05:06:22.395Z,77.83
2023-10-26T05:08:53.451Z,77.72
2023-10-26T05:11:25.942Z,77.90
2023-10-26T05:13:57.767Z,78.03
2023-10-26T05:16:29.933Z,78.19
2023-10-26T05:19:01.236Z,78.43
2023-10-26T05:21:31.514Z,78.66
2023-10-26T05:24:01.889Z,78.89
2023-10-26T05:26:32.046Z,79.19
2023-10-26T05:29:02.634Z,79.19
2023-10-26T05:31:33.368Z,79.79
2023-10-26T05:34:03.504Z,80.01
2023-10-26T05:36:33.701Z,80.48
2023-10-26T05:39:04.075Z,80.77
2023-10-26T05:41:36.463Z,81.15
2023-10-26T05:44:07.907Z,81.34
2023-10-26T05:46:39.662Z,81.76
2023-10-26T05:49:10.989Z,82.12
2023-10-26T05:51:42.707Z,82.49
2023-10-26T05:54:13.086Z,82.75
2023-10-26T05:56:43.367Z,83.00
2023-10-26T05:59:13.479Z,83.12
2023-10-26T06:01:43.745Z,83.31
2023-10-26T06:04:13.970Z,83.47
2023-10-26T06:06:44.692Z,83.74
2023-10-26T06:09:15.124Z,83.92
2023-10-26T06:11:46.188Z,84.05
2023-10-26T06:14:16.589Z,84.12
2023-10-26T06:16:48.139Z,84.06
2023-10-26T06:19:19.214Z,84.13
2023-10-26T06:21:49.076Z,84.03
2023-10-26T06:24:19.257Z,84.04
2023-10-26T06:26:49.433Z,83.99
2023-10-26T06:29:19.590Z,83.82
2023-10-26T06:31:51.180Z,83.93
2023-10-26T06:34:22.443Z,83.83
2023-10-26T06:36:52.745Z,83.87
2023-10-26T06:39:22.912Z,83.74
2023-10-26T06:41:53.104Z,83.64
2023-10-26T06:44:27.161Z,83.57
2023-10-26T06:46:58.272Z,83.48
2023-10-26T06:49:30.644Z,83.43
2023-10-26T06:52:02.511Z,83.31
2023-10-26T06:54:34.366Z,83.10
2023-10-26T06:57:05.987Z,82.97
2023-10-26T06:59:37.076Z,83.17
2023-10-26T07:02:12.063Z,82.78
2023-10-26T07:04:43.426Z,82.73
2023-10-26T07:07:14.927Z,82.33
2023-10-26T07:09:45.940Z,82.09
2023-10-26T07:12:17.491Z,81.81
2023-10-26T07:14:48.619Z,81.90
2023-10-26T07:17:19.062Z,81.59
2023-10-26T07:19:49.251Z,81.57
2023-10-26T07:22:19.174Z,81.69
2023-10-26T07:24:50.058Z,81.22
2023-10-26T07:27:20.628Z,81.28
2023-10-26T07:29:50.760Z,80.93
2023-10-26T07:32:20.912Z,80.24
2023-10-26T07:34:50.801Z,80.19
2023-10-26T07:37:22.358Z,79.96
2023-10-26T07:39:52.997Z,79.93
2023-10-26T07:42:44.059Z,79.29
2023-10-26T07:45:15.048Z,79.37
2023-10-26T07:47:46.431Z,79.04
2023-10-26T07:50:20.131Z,79.17
2023-10-26T07:52:51.245Z,78.68
2023-10-26T07:55:22.566Z,78.59
2023-10-26T07:57:52.858Z,78.77
2023-10-26T08:00:24.746Z,78.66
2023-10-26T08:02:55.953Z,78.87
2023-10-26T08:05:27.113Z,78.70
2023-10-26T08:07:57.853Z,78.95
2023-10-26T08:10:28.391Z,79.06
2023-10-26T08:13:02.029Z,79.01
2023-10-26T08:16:11.134Z,79.19
2023-10-26T08:18:24.040Z,78.62
2023-10-26T08:20:54.936Z,78.06
2023-10-26T08:23:27.011Z,77.48
2023-10-26T08:25:58.375Z,76.80
2023-10-26T08:28:29.465Z,76.76
2023-10-26T08:30:59.814Z,76.47
2023-10-26T08:33:33.895Z,76.72
2023-10-26T08:36:06.526Z,76.48
2023-10-26T08:38:36.910Z,76.64
2023-10-26T08:41:08.975Z,76.65
2023-10-26T08:43:39.551Z,76.70
2023-10-26T08:46:13.684Z,76.41
2023-10-26T08:48:45.949Z,76.24
2023-10-26T08:51:16.476Z,76.24
2023-10-26T08:53:46.858Z,76.06
2023-10-26T08:56:20.417Z,76.25
2023-10-26T08:58:51.948Z,75.88
2023-10-26T09:01:23.030Z,75.72
2023-10-26T09:03:54.206Z,75.46
2023-10-26T09:06:24.901Z,75.23
2023-10-26T09:09:04.581Z,75.24
2023-10-26T09:11:35.731Z,74.95
2023-10-26T09:14:22.452Z,74.92
2023-10-26T09:16:53.603Z,74.76
2023-10-26T09:19:24.620Z,74.98
2023-10-26T09:22:02.532Z,75.32
2023-10-26T09:24:33.420Z,75.03
2023-10-26T09:27:05.900Z,75.29
2023-10-26T09:29:42.699Z,75.34
2023-10-26T09:32:13.875Z,75.03
2023-10-26T09:34:46.686Z,75.04
2023-10-26T09:37:18.401Z,74.80
2023-10-26T09:40:04.643Z,74.52
2023-10-26T09:42:42.901Z,74.35
2023-10-26T09:45:14.914Z,74.32
2023-10-26T09:47:45.738Z,74.14
2023-10-26T09:50:19.673Z,73.67
2023-10-26T09:52:50.348Z,73.61
2023-10-26T09:55:21.968Z,73.80
2023-10-26T09:58:08.832Z,73.29
2023-10-26T10:00:40.961Z,72.90
2023-10-26T10:03:19.648Z,72.98
2023-10-26T10:05:50.349Z,73.52
2023-10-26T10:08:57.370Z,73.78
2023-10-26T10:11:28.618Z,72.93
2023-10-26T10:13:59.706Z,72.48
2023-10-26T10:16:40.105Z,72.20
2023-10-26T10:19:28.618Z,72.24
2023-10-26T10:21:59.802Z,72.45
2023-10-26T10:24:47.391Z,72.43
2023-10-26T10:27:21.791Z,72.29
2023-10-26T10:29:52.978Z,71.83
2023-10-26T10:32:50.868Z,71.35
2023-10-26T10:35:47.595Z,72.30
2023-10-26T10:38:25.829Z,71.70
2023-10-26T10:41:03.258Z,71.19
2023-10-26T10:43:40.197Z,71.61
2023-10-26T10:46:26.048Z,67.78
2023-10-26T10:49:07.146Z,68.09
2023-10-26T10:51:41.926Z,67.56
2023-10-26T10:54:30.767Z,68.25
2023-10-26T10:57:08.212Z,68.55
2023-10-26T10:59:39.410Z,69.88
2023-10-26T11:02:15.542Z,70.15
2023-10-26T11:05:12.523Z,70.80
2023-10-26T11:07:48.926Z,70.50
2023-10-26T11:10:21.165Z,70.53
2023-10-26T11:12:54.666Z,69.50
2023-10-26T11:15:37.622Z,69.72
2023-10-26T11:18:11.143Z,70.46
2023-10-26T11:20:46.807Z,70.93
2023-10-26T11:23:18.401Z,72.16
2023-10-26T11:25:48.933Z,69.85
2023-10-26T11:28:36.396Z,69.35
2023-10-26T11:31:08.239Z,70.75
2023-10-26T11:33:42.189Z,66.63
2023-10-26T11:36:16.393Z,66.05
2023-10-26T11:38:50.728Z,66.37
2023-10-26T11:41:29.216Z,66.96
2023-10-26T11:44:01.798Z,67.67
2023-10-26T11:46:38.180Z,67.23
2023-10-26T11:49:09.353Z,66.35
2023-10-26T11:51:47.467Z,66.16
2023-10-26T11:54:21.277Z,67.41
2023-10-26T11:56:51.394Z,67.74
2023-10-26T11:59:22.282Z,68.24
2023-10-26T12:01:52.808Z,67.59
2023-10-26T12:04:22.989Z,68.30
2023-10-26T12:06:53.791Z,68.91
2023-10-26T12:09:24.657Z,68.28
2023-10-26T12:11:55.494Z,69.41
2023-10-26T12:14:26.494Z,70.25
2023-10-26T12:16:57.034Z,69.69
2023-10-26T12:19:27.498Z,69.64
2023-10-26T12:21:59.137Z,71.19
2023-10-26T12:24:30.764Z,69.46
2023-10-26T12:27:02.047Z,70.59
2023-10-26T12:29:33.067Z,70.64
2023-10-26T12:32:03.546Z,70.83
2023-10-26T12:34:34.070Z,70.59
2023-10-26T12:37:04.716Z,69.51
2023-10-26T12:39:35.857Z,70.87
2023-10-26T12:42:06.296Z,72.01
2023-10-26T12:44:36.533Z,71.29
2023-10-26T12:47:06.863Z,70.51
2023-10-26T12:49:37.981Z,71.80
2023-10-26T12:52:08.608Z,69.97
2023-10-26T12:54:38.738Z,73.28
2023-10-26T12:57:09.669Z,73.19
2023-10-26T12:59:40.493Z,71.20
2023-10-26T13:02:11.819Z,68.99
2023-10-26T13:04:42.509Z,70.62
2023-10-26T13:07:12.542Z,70.75
2023-10-26T13:09:45.823Z,71.11
2023-10-26T13:12:17.283Z,71.11
2023-10-26T13:14:50.799Z,71.14
2023-10-26T13:17:28.222Z,71.00
2023-10-26T13:19:59.188Z,71.93
2023-10-26T13:22:29.885Z,71.71
2023-10-26T13:25:07.500Z,70.45
2023-10-26T13:27:38.237Z,70.63
2023-10-26T13:30:19.728Z,71.50
2023-10-26T13:32:50.829Z,70.14
2023-10-26T13:35:21.197Z,69.67
2023-10-26T13:37:51.412Z,70.38
2023-10-26T13:40:22.421Z,72.91
2023-10-26T13:42:53.219Z,70.35
2023-10-26T13:45:24.801Z,70.13
2023-10-26T13:47:57.112Z,70.24
2023-10-26T13:50:27.609Z,70.20
2023-10-26T13:52:57.918Z,69.49
2023-10-26T13:55:29.354Z,70.82
2023-10-26T13:58:00.127Z,68.29
2023-10-26T14:00:31.135Z,72.67
2023-10-26T14:03:03.497Z,68.61
2023-10-26T14:05:34.519Z,68.78
2023-10-26T14:08:06.743Z,69.58
2023-10-26T14:10:37.710Z,69.79
2023-10-26T14:13:08.019Z,69.33
2023-10-26T14:15:38.351Z,69.01
2023-10-26T14:18:08.511Z,69.62
2023-10-26T14:20:38.702Z,69.90
2023-10-26T14:23:08.927Z,69.94
2023-10-26T14:25:39.050Z,68.45
2023-10-26T14:28:10.430Z,69.99
2023-10-26T14:30:40.714Z,68.41
2023-10-26T14:33:11.667Z,68.34
2023-10-26T14:35:41.771Z,68.49
2023-10-26T14:38:12.601Z,70.43
2023-10-26T14:40:43.434Z,69.64
2023-10-26T14:43:14.357Z,70.52
2023-10-26T14:45:45.589Z,70.50
2023-10-26T14:48:17.068Z,70.39
2023-10-26T14:50:48.373Z,71.12
2023-10-26T14:53:18.859Z,68.17
2023-10-26T14:55:49.232Z,70.65
2023-10-26T14:58:19.947Z,70.00
2023-10-26T15:00:50.521Z,70.40
2023-10-26T15:03:20.720Z,70.55
2023-10-26T15:05:51.309Z,69.71
2023-10-26T15:08:21.395Z,70.61
2023-10-26T15:10:53.339Z,69.91
2023-10-26T15:13:43.892Z,71.52
2023-10-26T15:16:15.046Z,69.92
2023-10-26T15:18:46.235Z,71.20
2023-10-26T15:21:16.748Z,71.60
2023-10-26T15:23:46.893Z,71.84
2023-10-26T15:26:16.979Z,72.15
2023-10-26T15:28:47.841Z,72.16
2023-10-26T15:31:18.664Z,70.37
2023-10-26T15:33:48.613Z,70.62
2023-10-26T15:36:18.747Z,71.31
2023-10-26T15:38:48.569Z,72.76
2023-10-26T15:41:18.453Z,71.05
2023-10-26T15:43:49.194Z,71.04
2023-10-26T15:46:19.845Z,70.86
2023-10-26T15:49:30.774Z,70.93
2023-10-26T15:51:41.533Z,70.68
2023-10-26T15:54:12.376Z,73.10
2023-10-26T15:56:42.554Z,72.31
2023-10-26T15:59:12.665Z,72.25
2023-10-26T16:01:42.816Z,72.94
2023-10-26T16:04:13.552Z,72.53
2023-10-26T16:06:46.278Z,71.40
2023-10-26T16:09:17.514Z,71.45
2023-10-26T16:11:48.159Z,71.88
2023-10-26T16:14:18.402Z,71.15
2023-10-26T16:16:49.275Z,71.46
2023-10-26T16:19:20.061Z,69.78
2023-10-26T16:21:51.195Z,69.16
2023-10-26T16:24:22.352Z,71.77
2023-10-26T16:26:53.395Z,70.31
2023-10-26T16:29:23.762Z,70.71
2023-10-26T16:31:54.172Z,69.60
2023-10-26T16:34:25.461Z,71.36
2023-10-26T16:36:55.939Z,72.52
2023-10-26T16:39:27.165Z,71.94
2023-10-26T16:41:58.532Z,71.77
2023-10-26T16:44:28.808Z,70.27
2023-10-26T16:46:59.147Z,71.54
2023-10-26T16:49:29.807Z,72.62
2023-10-26T16:52:01.163Z,70.45
2023-10-26T16:54:31.412Z,69.84
2023-10-26T16:57:01.615Z,69.98
2023-10-26T16:59:32.326Z,69.66
2023-10-26T17:02:02.752Z,70.91
2023-10-26T17:04:34.792Z,71.19
2023-10-26T17:07:06.157Z,68.88
2023-10-26T17:09:36.637Z,71.40
2023-10-26T17:12:07.759Z,70.36
2023-10-26T17:14:38.603Z,71.23
2023-10-26T17:17:09.261Z,71.58
2023-10-26T17:19:39.352Z,70.18
2023-10-26T17:22:12.329Z,70.72
2023-10-26T17:24:42.844Z,70.03
2023-10-26T17:27:13.333Z,70.77
2023-10-26T17:29:44.517Z,70.05
2023-10-26T17:32:16.070Z,70.34
2023-10-26T17:34:47.813Z,70.89
2023-10-26T17:37:18.287Z,70.86
2023-10-26T17:39:50.322Z,70.82
2023-10-26T17:42:23.063Z,71.60
2023-10-26T17:44:55.421Z,72.58
2023-10-26T17:47:26.765Z,72.36
2023-10-26T17:49:57.470Z,71.45
2023-10-26T17:52:27.722Z,72.86
2023-10-26T17:54:58.723Z,70.43
2023-10-26T17:57:29.591Z,71.21
2023-10-26T17:59:59.924Z,73.42
2023-10-26T18:02:30.951Z,72.76
2023-10-26T18:05:02.703Z,70.86
2023-10-26T18:07:33.646Z,70.95
2023-10-26T18:10:03.803Z,70.74
2023-10-26T18:12:34.731Z,72.89
2023-10-26T18:15:04.936Z,71.87
2023-10-26T18:17:35.471Z,71.27
2023-10-26T18:21:04.635Z,72.07
2023-10-26T18:23:37.899Z,71.20
2023-10-26T18:26:11.112Z,71.68
2023-10-26T18:28:43.762Z,71.62
2023-10-26T18:31:16.348Z,72.75
2023-10-26T18:33:51.346Z,72.77
2023-10-26T18:36:23.566Z,72.62
2023-10-26T18:38:55.154Z,71.48
2023-10-26T18:41:27.437Z,72.48
2023-10-26T18:43:58.151Z,71.89
2023-10-26T18:46:28.822Z,72.27
2023-10-26T18:48:59.340Z,72.67
2023-10-26T18:51:29.973Z,72.30
2023-10-26T18:54:00.303Z,74.80
2023-10-26T18:56:30.490Z,72.82
2023-10-26T18:59:02.173Z,73.35
2023-10-26T19:01:33.101Z,71.83
2023-10-26T19:04:03.610Z,71.71
2023-10-26T19:06:33.838Z,72.39
2023-10-26T19:09:03.970Z,73.22
2023-10-26T19:11:34.142Z,71.85
2023-10-26T19:14:05.823Z,71.85
2023-10-26T19:16:36.327Z,71.89
2023-10-26T19:19:06.890Z,70.56
2023-10-26T19:21:37.059Z,70.80
2023-10-26T19:24:08.183Z,71.44
2023-10-26T19:26:39.820Z,70.77
2023-10-26T19:29:10.995Z,70.75
2023-10-26T19:31:41.321Z,71.75
2023-10-26T19:34:12.024Z,71.21
2023-10-26T19:36:42.861Z,71.71
2023-10-26T19:39:13.452Z,70.67
2023-10-26T19:41:43.564Z,71.22
2023-10-26T19:44:15.493Z,70.62
2023-10-26T19:46:46.436Z,70.80
2023-10-26T19:49:18.600Z,71.59
2023-10-26T19:51:48.728Z,69.97
2023-10-26T19:54:21.516Z,70.99
2023-10-26T19:56:52.089Z,70.24
2023-10-26T19:59:22.948Z,72.30
2023-10-26T20:01:55.692Z,69.85
2023-10-26T20:04:26.620Z,72.02
2023-10-26T20:06:57.771Z,71.74
2023-10-26T20:09:28.112Z,70.61
2023-10-26T20:11:59.653Z,72.51
2023-10-26T20:14:31.290Z,73.42
2023-10-26T20:17:02.307Z,73.25
2023-10-26T20:19:33.893Z,71.36
2023-10-26T20:22:04.467Z,72.69
2023-10-26T20:24:34.847Z,71.11
2023-10-26T20:27:06.177Z,72.04
2023-10-26T20:29:38.123Z,71.42
2023-10-26T20:32:08.964Z,72.43
2023-10-26T20:34:39.958Z,72.49
2023-10-26T20:37:11.169Z,72.46
2023-10-26T20:39:43.575Z,72.41
2023-10-26T20:42:14.243Z,71.19
2023-10-26T20:44:44.360Z,72.37
2023-10-26T20:47:14.650Z,73.35
2023-10-26T20:49:45.833Z,73.02
2023-10-26T20:52:18.487Z,73.44
2023-10-26T20:54:51.022Z,73.45
2023-10-26T20:57:21.997Z,72.56
2023-10-26T20:59:52.874Z,72.37
2023-10-26T21:02:23.402Z,73.90
2023-10-26T21:04:53.517Z,74.53
2023-10-26T21:07:24.339Z,74.68
2023-10-26T21:09:54.425Z,74.33
2023-10-26T21:12:24.972Z,75.93
2023-10-26T21:14:58.830Z,75.73
2023-10-26T21:17:32.145Z,75.71
2023-10-26T21:20:04.772Z,76.24
2023-10-26T21:22:36.523Z,76.39
2023-10-26T21:25:08.328Z,77.13
2023-10-26T21:27:39.834Z,76.62
2023-10-26T21:30:12.101Z,77.34
2023-10-26T21:32:42.077Z,76.58
2023-10-26T21:35:12.772Z,76.42
2023-10-26T21:37:43.723Z,76.28
2023-10-26T21:40:14.354Z,76.66
2023-10-26T21:42:44.658Z,77.14
2023-10-26T21:45:14.830Z,76.73
2023-10-26T21:47:44.896Z,77.32
2023-10-26T21:50:15.053Z,76.56
2023-10-26T21:52:45.902Z,76.98
2023-10-26T21:55:16.492Z,77.06
2023-10-26T21:57:46.624Z,76.76
2023-10-26T22:00:18.108Z,76.82
2023-10-26T22:02:48.670Z,77.51
2023-10-26T22:05:18.942Z,77.47
2023-10-26T22:07:49.105Z,77.70
2023-10-26T22:10:20.828Z,77.44
2023-10-26T22:12:52.112Z,77.32
2023-10-26T22:15:22.301Z,78.25
2023-10-26T22:20:22.268Z,78.35
2023-10-26T22:22:52.566Z,78.02
2023-10-26T22:25:23.375Z,78.60
2023-10-26T22:27:54.172Z,78.48
2023-10-26T22:30:25.572Z,78.05
2023-10-26T22:32:55.831Z,78.43
2023-10-26T22:35:26.465Z,77.35
2023-10-26T22:37:58.066Z,77.20
2023-10-26T22:40:28.679Z,77.62
2023-10-26T22:42:59.534Z,77.27
2023-10-26T22:45:29.628Z,77.80
2023-10-26T22:48:00.417Z,77.76
2023-10-26T22:50:30.513Z,78.09
2023-10-26T22:53:01.940Z,77.83
2023-10-26T22:55:36.026Z,78.68
2023-10-26T22:58:07.169Z,77.29
2023-10-26T23:00:39.000Z,77.94
2023-10-26T23:03:11.186Z,77.72
2023-10-26T23:05:44.190Z,77.56
2023-10-26T23:08:16.786Z,77.85
2023-10-26T23:10:47.250Z,77.86
2023-10-26T23:13:17.437Z,77.48
2023-10-26T23:15:49.609Z,78.37
2023-10-26T23:18:20.322Z,78.28
2023-10-26T23:20:51.712Z,78.68
2023-10-26T23:23:23.074Z,78.00
2023-10-26T23:25:55.093Z,78.44
2023-10-26T23:28:26.014Z,78.15
2023-10-26T23:30:56.835Z,78.02
2023-10-26T23:33:27.880Z,77.48
2023-10-26T23:35:58.235Z,78.30
2023-10-26T23:38:31.126Z,77.97
2023-10-26T23:41:02.664Z,77.91
2023-10-26T23:43:33.431Z,77.72
2023-10-26T23:46:04.460Z,78.49
2023-10-26T23:48:37.164Z,77.31
2023-10-26T23:51:07.873Z,77.74
2023-10-26T23:53:39.270Z,77.63
2023-10-26T23:56:10.899Z,78.94
2023-10-26T23:58:41.741Z,78.13
